Time;durP1;ratioP1;P1;durP2;ratioP2;P2;SDS_P1;SDS_P2;PMS_P1;PMS_P2;Temp;Humidity;BMP_temperature;BMP_pressure;BME280_temperature;BME280_humidity;BME280_pressure;Samples;Min_cycle;Max_cycle;Signal;HPM_P1;HPM_P2
2021/03/25 00:00:26;;;;;;;13.73;1.90;;;;;;;;;;5227971;27;20105;-84
2021/03/25 00:02:55;;;;;;;8.07;1.40;;;;;;;;;;5227352;27;20071;-83
2021/03/25 00:05:24;;;;;;;8.48;1.37;;;;;;;;;;5228950;27;20023;-84
2021/03/25 00:07:52;;;;;;;9.63;1.55;;;;;;;;;;5222135;27;20039;-84
2021/03/25 00:10:26;;;;;;;8.80;1.40;;;;;;;;;;5223798;27;20030;-84
2021/03/25 00:12:56;;;;;;;8.65;1.80;;;;;;;;;;5227928;27;20062;-84
2021/03/25 00:15:25;;;;;;;10.75;1.50;;;;;;;;;;5229255;27;20043;-84
2021/03/25 00:17:53;;;;;;;12.80;1.90;;;;;;;;;;5232184;27;20036;-84
2021/03/25 00:20:22;;;;;;;11.52;1.60;;;;;;;;;;5229630;27;20034;-83
2021/03/25 00:22:51;;;;;;;15.00;1.58;;;;;;;;;;5229704;27;20026;-83
2021/03/25 00:25:25;;;;;;;14.68;1.75;;;;;;;;;;5229747;27;20060;-85
2021/03/25 00:28:08;;;;;;;4.82;1.37;;;;;;;;;;5229980;27;20061;-85
2021/03/25 00:30:42;;;;;;;7.97;1.50;;;;;;;;;;5226956;27;20019;-84
2021/03/25 00:33:13;;;;;;;6.80;1.40;;;;;;;;;;5230428;27;20034;-85
2021/03/25 00:35:42;;;;;;;6.37;1.08;;;;;;;;;;5228919;27;20034;-84
2021/03/25 00:38:11;;;;;;;9.05;1.50;;;;;;;;;;5221726;27;20061;-83
2021/03/25 00:40:44;;;;;;;10.32;1.70;;;;;;;;;;5228839;27;20050;-84
2021/03/25 00:43:14;;;;;;;11.40;1.48;;;;;;;;;;5230538;27;20428;-85
2021/03/25 00:45:44;;;;;;;13.60;1.50;;;;;;;;;;5226595;27;20427;-83
2021/03/25 00:48:20;;;;;;;14.90;1.62;;;;;;;;;;5220004;27;20038;-84
2021/03/25 00:50:56;;;;;;;10.75;1.80;;;;;;;;;;5224907;27;20077;-83
2021/03/25 00:53:26;;;;;;;9.95;1.70;;;;;;;;;;5229427;27;20397;-85
2021/03/25 00:55:55;;;;;;;13.55;1.55;;;;;;;;;;5230406;27;20022;-83
2021/03/25 00:58:35;;;;;;;10.88;1.62;;;;;;;;;;5225849;27;20034;-84
2021/03/25 01:01:12;;;;;;;10.70;1.45;;;;;;;;;;5227739;27;20561;-85
2021/03/25 01:03:47;;;;;;;10.17;1.67;;;;;;;;;;5228049;27;20030;-85
2021/03/25 01:06:15;;;;;;;17.02;1.90;;;;;;;;;;5231922;27;20467;-82
2021/03/25 01:08:43;;;;;;;10.18;1.70;;;;;;;;;;5225959;27;20165;-83
2021/03/25 01:11:16;;;;;;;9.73;1.50;;;;;;;;;;5232711;27;20082;-85
2021/03/25 01:13:47;;;;;;;9.43;1.45;;;;;;;;;;5232945;27;20039;-84
2021/03/25 01:16:16;;;;;;;12.68;1.60;;;;;;;;;;5228036;27;20041;-83
2021/03/25 01:18:46;;;;;;;15.82;1.52;;;;;;;;;;5225799;27;20067;-83
2021/03/25 01:21:14;;;;;;;15.15;1.60;;;;;;;;;;5230715;27;20030;-83
2021/03/25 01:23:42;;;;;;;16.08;1.65;;;;;;;;;;5226281;27;20026;-84
2021/03/25 01:26:10;;;;;;;9.52;1.50;;;;;;;;;;5223955;27;20033;-84
2021/03/25 01:28:38;;;;;;;12.48;1.50;;;;;;;;;;5228519;27;20040;-84
2021/03/25 01:31:06;;;;;;;8.63;1.35;;;;;;;;;;5232420;27;20062;-84
2021/03/25 01:33:35;;;;;;;18.90;2.08;;;;;;;;;;5232460;27;20081;-83
2021/03/25 01:36:03;;;;;;;11.05;1.60;;;;;;;;;;5231960;27;20015;-84
2021/03/25 01:38:31;;;;;;;14.73;1.83;;;;;;;;;;5210401;27;20093;-85
2021/03/25 01:41:01;;;;;;;14.63;1.92;;;;;;;;;;5232433;27;20064;-84
2021/03/25 01:43:31;;;;;;;12.00;1.92;;;;;;;;;;5226384;27;20064;-84
2021/03/25 01:46:18;;;;;;;16.60;1.87;;;;;;;;;;5229955;27;20432;-84
2021/03/25 01:48:48;;;;;;;13.77;1.58;;;;;;;;;;5231645;27;20060;-84
2021/03/25 01:51:19;;;;;;;8.75;1.62;;;;;;;;;;5230698;27;20380;-84
2021/03/25 01:53:57;;;;;;;13.95;1.67;;;;;;;;;;5232614;27;20045;-84
2021/03/25 01:56:37;;;;;;;19.67;1.70;;;;;;;;;;5231799;27;20014;-83
2021/03/25 01:59:08;;;;;;;15.90;2.30;;;;;;;;;;5230552;27;20428;-84
2021/03/25 02:02:03;;;;;;;8.65;1.27;;;;;;;;;;5232091;27;20487;-83
2021/03/25 02:04:32;;;;;;;14.48;1.85;;;;;;;;;;5197946;27;20037;-85
2021/03/25 02:07:23;;;;;;;10.02;1.37;;;;;;;;;;5229217;27;20064;-83
2021/03/25 02:09:57;;;;;;;18.08;2.03;;;;;;;;;;5231379;27;20037;-83
2021/03/25 02:12:57;;;;;;;15.55;1.95;;;;;;;;;;5230864;27;20081;-84
2021/03/25 02:16:02;;;;;;;10.25;1.85;;;;;;;;;;5231564;27;20030;-84
2021/03/25 02:18:35;;;;;;;11.75;1.85;;;;;;;;;;5230818;27;20030;-83
2021/03/25 02:24:18;;;;;;;12.10;2.12;;;;;;;;;;5228155;27;20029;-84
2021/03/25 02:27:06;;;;;;;13.70;2.03;;;;;;;;;;5227245;27;20369;-84
2021/03/25 02:29:41;;;;;;;17.02;1.95;;;;;;;;;;5228905;27;20348;-84
2021/03/25 02:32:27;;;;;;;25.05;2.50;;;;;;;;;;5228697;27;20045;-84
2021/03/25 02:34:59;;;;;;;20.98;2.47;;;;;;;;;;5230048;27;20396;-84
2021/03/25 02:37:36;;;;;;;18.35;1.98;;;;;;;;;;5233825;27;20022;-83
2021/03/25 02:40:10;;;;;;;20.77;2.37;;;;;;;;;;5230933;27;20040;-83
2021/03/25 02:42:44;;;;;;;17.58;2.20;;;;;;;;;;5226084;27;20357;-83
2021/03/25 02:45:15;;;;;;;15.45;2.20;;;;;;;;;;5230562;27;20810;-84
2021/03/25 02:47:45;;;;;;;16.62;2.03;;;;;;;;;;5233139;27;20042;-83
2021/03/25 02:50:22;;;;;;;15.07;2.55;;;;;;;;;;5226790;27;20074;-82
2021/03/25 02:52:56;;;;;;;31.73;2.87;;;;;;;;;;5227566;27;20026;-82
2021/03/25 02:55:25;;;;;;;15.73;2.12;;;;;;;;;;5228706;27;20038;-83
2021/03/25 02:57:58;;;;;;;15.02;2.30;;;;;;;;;;5232082;27;20049;-83
2021/03/25 03:00:30;;;;;;;16.98;2.03;;;;;;;;;;5231887;27;20015;-84
2021/03/25 03:03:05;;;;;;;20.42;2.58;;;;;;;;;;5228483;27;20034;-85
2021/03/25 03:05:38;;;;;;;12.32;2.03;;;;;;;;;;5231244;27;20084;-84
2021/03/25 03:08:24;;;;;;;11.73;1.95;;;;;;;;;;5231727;27;20047;-84
2021/03/25 03:11:10;;;;;;;19.27;2.53;;;;;;;;;;5234967;27;20023;-94
2021/03/25 03:14:32;;;;;;;14.82;2.35;;;;;;;;;;5243631;27;20037;-92
2021/03/25 03:17:42;;;;;;;10.95;2.20;;;;;;;;;;5233342;27;20036;-94
2021/03/25 03:21:10;;;;;;;19.87;2.50;;;;;;;;;;5246117;27;20061;-94
2021/03/25 03:24:38;;;;;;;16.35;2.00;;;;;;;;;;5236402;27;20154;-94
2021/03/25 03:27:25;;;;;;;;;;;;;;;;;;;;;
2021/03/25 03:30:19;;;;;;;14.75;2.22;;;;;;;;;;5246191;27;20061;-95
2021/03/25 03:33:15;;;;;;;16.17;2.78;;;;;;;;;;5212273;27;20036;-93
2021/03/25 03:36:18;;;;;;;;;;;;;;;;;;;;;
2021/03/25 03:39:45;;;;;;;15.68;2.92;;;;;;;;;;5250032;27;20062;-94
2021/03/25 03:43:05;;;;;;;15.77;3.37;;;;;;;;;;5134018;27;20027;-93
2021/03/25 03:45:55;;;;;;;27.87;3.62;;;;;;;;;;5129579;27;20038;-95
2021/03/25 03:49:48;;;;;;;21.37;3.10;;;;;;;;;;5133189;27;20126;-93
2021/03/25 03:55:49;;;;;;;22.00;3.60;;;;;;;;;;5169264;27;20058;-95
2021/03/25 04:03:38;;;;;;;26.33;3.78;;;;;;;;;;5140494;27;20127;-94
2021/03/25 04:07:25;;;;;;;;;;;;;;;;;;;;;
2021/03/25 04:14:23;;;;;;;32.72;5.57;;;;;;;;;;5230286;27;20049;-95
2021/03/25 04:17:37;;;;;;;24.98;4.30;;;;;;;;;;5229859;27;20091;-95
2021/03/25 04:20:28;;;;;;;28.65;5.03;;;;;;;;;;5230881;27;20001;-94
2021/03/25 04:23:23;;;;;;;25.73;4.70;;;;;;;;;;5228501;27;20009;-94
2021/03/25 04:26:38;;;;;;;26.48;5.10;;;;;;;;;;5229406;27;20035;-94
2021/03/25 04:29:58;;;;;;;37.85;5.82;;;;;;;;;;5229692;27;20029;-95
2021/03/25 04:32:54;;;;;;;34.42;5.55;;;;;;;;;;5212898;27;20038;-93
2021/03/25 04:36:25;;;;;;;32.47;4.97;;;;;;;;;;5184295;27;20035;-93
2021/03/25 04:39:25;;;;;;;34.08;5.72;;;;;;;;;;5227351;27;20063;-95
2021/03/25 04:42:32;;;;;;;29.30;5.65;;;;;;;;;;5228689;27;20050;-94
2021/03/25 04:45:55;;;;;;;34.33;5.85;;;;;;;;;;5202013;27;20037;-94
2021/03/25 04:49:02;;;;;;;33.67;6.22;;;;;;;;;;5214299;27;20023;-93
2021/03/25 04:52:03;;;;;;;40.40;6.18;;;;;;;;;;5227170;27;20047;-95
2021/03/25 04:54:51;;;;;;;43.45;6.50;;;;;;;;;;5211941;27;20483;-94
2021/03/25 04:58:07;;;;;;;;;;;;;;;;;;;;;
2021/03/25 05:01:17;;;;;;;34.72;6.85;;;;;;;;;;5204916;27;20038;-95
2021/03/25 05:04:10;;;;;;;39.83;7.20;;;;;;;;;;5191681;27;20023;-95
2021/03/25 05:06:54;;;;;;;37.58;6.37;;;;;;;;;;5190448;27;20014;-95
2021/03/25 05:09:47;;;;;;;42.85;7.20;;;;;;;;;;5191387;27;20065;-94
2021/03/25 05:12:39;;;;;;;49.58;6.28;;;;;;;;;;5204264;27;20054;-94
2021/03/25 05:15:34;;;;;;;39.35;6.93;;;;;;;;;;5191027;27;20077;-95
2021/03/25 05:18:14;;;;;;;39.67;6.75;;;;;;;;;;5190338;27;20035;-94
2021/03/25 05:21:20;;;;;;;41.25;6.82;;;;;;;;;;5206013;27;20026;-94
2021/03/25 05:24:12;;;;;;;46.13;7.20;;;;;;;;;;5208391;27;20033;-94
2021/03/25 05:27:38;;;;;;;44.78;7.20;;;;;;;;;;5214105;27;20055;-95
2021/03/25 05:30:39;;;;;;;45.92;7.05;;;;;;;;;;5208169;27;20911;-95
2021/03/25 05:34:10;;;;;;;44.75;7.57;;;;;;;;;;5213806;27;20022;-95
2021/03/25 05:37:28;;;;;;;44.80;7.20;;;;;;;;;;5225798;27;20050;-95
2021/03/25 05:40:06;;;;;;;51.13;6.97;;;;;;;;;;5209042;27;20030;-94
2021/03/25 05:43:05;;;;;;;40.53;7.37;;;;;;;;;;5226436;27;20018;-95
2021/03/25 05:46:06;;;;;;;64.62;8.95;;;;;;;;;;5200016;27;20029;-95
2021/03/25 05:48:58;;;;;;;52.90;8.60;;;;;;;;;;5222497;27;20027;-96
2021/03/25 05:51:50;;;;;;;45.97;7.10;;;;;;;;;;5222403;27;20019;-94
2021/03/25 05:54:42;;;;;;;45.85;7.03;;;;;;;;;;5223482;27;20045;-94
2021/03/25 05:57:26;;;;;;;40.47;7.05;;;;;;;;;;5205353;27;20081;-95
2021/03/25 06:00:10;;;;;;;42.55;7.00;;;;;;;;;;5218323;27;20069;-94
2021/03/25 06:03:31;;;;;;;41.70;6.60;;;;;;;;;;5160865;27;20023;-94
2021/03/25 06:06:15;;;;;;;30.52;6.15;;;;;;;;;;5159297;27;20041;-94
2021/03/25 06:09:27;;;;;;;34.65;5.70;;;;;;;;;;5160077;27;20035;-95
2021/03/25 06:12:25;;;;;;;35.50;5.90;;;;;;;;;;5143133;27;20047;-94
2021/03/25 06:15:13;;;;;;;30.17;5.32;;;;;;;;;;5129064;27;20041;-94
2021/03/25 06:18:50;;;;;;;37.70;5.57;;;;;;;;;;5138532;27;20439;-94
2021/03/25 06:21:43;;;;;;;37.70;5.05;;;;;;;;;;5117728;27;20147;-96
2021/03/25 06:24:17;;;;;;;37.97;6.65;;;;;;;;;;5123227;27;20896;-94
2021/03/25 06:27:12;;;;;;;31.95;5.68;;;;;;;;;;5103042;27;20081;-95
2021/03/25 06:30:23;;;;;;;40.90;6.25;;;;;;;;;;5138780;27;20495;-95
2021/03/25 06:33:21;;;;;;;37.45;6.05;;;;;;;;;;5153488;27;20036;-94
2021/03/25 06:36:23;;;;;;;30.65;5.45;;;;;;;;;;5141381;27;20510;-95
2021/03/25 06:39:39;;;;;;;;;;;;;;;;;;;;;
2021/03/25 06:42:38;;;;;;;32.33;5.70;;;;;;;;;;5172879;27;20209;-94
2021/03/25 06:45:36;;;;;;;35.67;6.32;;;;;;;;;;5162920;27;20034;-94
2021/03/25 06:48:30;;;;;;;33.78;5.30;;;;;;;;;;5143328;27;20035;-94
2021/03/25 06:51:22;;;;;;;31.45;6.00;;;;;;;;;;5194236;27;20034;-94
2021/03/25 06:54:23;;;;;;;44.95;6.55;;;;;;;;;;5222766;27;20445;-93
2021/03/25 06:57:13;;;;;;;36.42;6.07;;;;;;;;;;5226754;27;19999;-94
2021/03/25 07:00:13;;;;;;;31.15;6.45;;;;;;;;;;5213706;27;20031;-94
2021/03/25 07:03:37;;;;;;;37.55;6.15;;;;;;;;;;5227155;27;20026;-94
2021/03/25 07:07:08;;;;;;;42.88;6.72;;;;;;;;;;5230153;27;20025;-94
2021/03/25 07:10:39;;;;;;;40.15;6.20;;;;;;;;;;5228612;27;20046;-94
2021/03/25 07:16:53;;;;;;;41.20;6.53;;;;;;;;;;5225447;27;20019;-94
2021/03/25 07:20:08;;;;;;;47.92;6.90;;;;;;;;;;5228630;27;20006;-95
2021/03/25 07:23:28;;;;;;;21.37;7.95;;;;;;;;;;5190474;27;20023;-96
2021/03/25 07:27:04;;;;;;;31.77;6.82;;;;;;;;;;5134505;28;20059;-94
2021/03/25 07:33:38;;;;;;;36.22;6.10;;;;;;;;;;5127865;27;20194;-94
2021/03/25 07:36:56;;;;;;;36.70;6.72;;;;;;;;;;5106623;28;20024;-96
2021/03/25 07:39:34;;;;;;;45.72;6.87;;;;;;;;;;5101574;28;20236;-95
2021/03/25 07:42:37;;;;;;;46.92;7.20;;;;;;;;;;5133852;27;20043;-96
2021/03/25 07:45:24;;;;;;;35.85;5.82;;;;;;;;;;5104906;28;20086;-95
2021/03/25 07:48:25;;;;;;;29.15;6.30;;;;;;;;;;5103864;28;20060;-95
2021/03/25 07:51:35;;;;;;;48.55;6.85;;;;;;;;;;5124504;28;20384;-96
2021/03/25 07:54:26;;;;;;;44.72;7.00;;;;;;;;;;5146596;27;20083;-96
2021/03/25 07:57:42;;;;;;;31.48;6.70;;;;;;;;;;5169033;27;20059;-93
2021/03/25 08:00:32;;;;;;;42.78;6.82;;;;;;;;;;5164664;27;20065;-95
2021/03/25 08:07:21;;;;;;;33.17;5.80;;;;;;;;;;5226929;27;20066;-95
2021/03/25 08:41:03;;;;;;;15.38;2.67;;;;;;;;;;5251604;27;20049;-85
2021/03/25 08:43:32;;;;;;;;;;;;;;;;;;5270057;27;20065;-85
2021/03/25 08:46:09;;;;;;;9.05;2.67;;;;;;;;;;5273913;27;20378;-84
2021/03/25 08:48:43;;;;;;;9.85;3.03;;;;;;;;;;5273951;27;20029;-85
2021/03/25 08:51:14;;;;;;;11.88;2.40;;;;;;;;;;5277688;27;20067;-84
2021/03/25 08:53:53;;;;;;;9.18;2.83;;;;;;;;;;5274880;27;20054;-84
2021/03/25 08:56:39;;;;;;;12.85;2.28;;;;;;;;;;5272707;27;20060;-85
2021/03/25 08:59:31;;;;;;;9.90;1.95;;;;;;;;;;5269999;27;20026;-84
2021/03/25 09:02:04;;;;;;;12.35;2.37;;;;;;;;;;5213605;27;20025;-85
2021/03/25 09:04:48;;;;;;;21.20;3.78;;;;;;;;;;5267429;27;20073;-84
2021/03/25 09:07:16;;;;;;;20.62;5.78;;;;;;;;;;5250069;27;20037;-85
2021/03/25 09:09:46;;;;;;;35.40;6.90;;;;;;;;;;5274568;27;20025;-84
2021/03/25 09:12:21;;;;;;;20.62;5.70;;;;;;;;;;5274221;27;20474;-84
2021/03/25 09:14:50;;;;;;;34.20;6.47;;;;;;;;;;5270850;27;20743;-84
2021/03/25 09:17:20;;;;;;;26.02;6.15;;;;;;;;;;5271183;27;20025;-85
2021/03/25 09:19:58;;;;;;;18.35;4.57;;;;;;;;;;5275695;27;20059;-84
2021/03/25 09:22:57;;;;;;;17.20;4.68;;;;;;;;;;5256794;27;20026;-85
2021/03/25 09:25:26;;;;;;;15.35;3.97;;;;;;;;;;5274205;27;20040;-85
2021/03/25 09:28:17;;;;;;;19.92;4.85;;;;;;;;;;5255029;27;20021;-85
2021/03/25 09:30:47;;;;;;;17.83;3.10;;;;;;;;;;5251058;27;20024;-86
2021/03/25 09:33:34;;;;;;;18.35;5.37;;;;;;;;;;5269969;27;20033;-84
2021/03/25 09:36:22;;;;;;;18.10;4.15;;;;;;;;;;5254521;27;20395;-85
2021/03/25 09:38:52;;;;;;;25.42;4.57;;;;;;;;;;5271245;27;20751;-85
2021/03/25 09:41:40;;;;;;;19.48;3.85;;;;;;;;;;5243141;27;20095;-84
2021/03/25 09:44:11;;;;;;;16.50;3.12;;;;;;;;;;5243696;27;20088;-85
2021/03/25 09:46:46;;;;;;;18.45;4.25;;;;;;;;;;5251740;27;20414;-86
2021/03/25 09:49:20;;;;;;;16.08;3.83;;;;;;;;;;5248666;27;20256;-86
2021/03/25 09:51:50;;;;;;;14.60;3.50;;;;;;;;;;5247214;27;20510;-85
2021/03/25 09:54:28;;;;;;;15.48;3.92;;;;;;;;;;5227921;27;20668;-85
2021/03/25 09:57:15;;;;;;;11.23;3.83;;;;;;;;;;5232521;27;20055;-86
2021/03/25 09:59:54;;;;;;;21.25;5.15;;;;;;;;;;5248860;27;20030;-85
2021/03/25 10:02:38;;;;;;;11.32;3.72;;;;;;;;;;5250316;27;20059;-86
2021/03/25 10:05:24;;;;;;;14.30;3.30;;;;;;;;;;5248213;27;20057;-85
2021/03/25 10:07:52;;;;;;;13.05;3.10;;;;;;;;;;5251259;27;20507;-85
2021/03/25 10:10:35;;;;;;;13.07;3.00;;;;;;;;;;5247511;27;20073;-85
2021/03/25 10:13:05;;;;;;;14.82;5.03;;;;;;;;;;5249593;27;20026;-84
2021/03/25 10:15:51;;;;;;;14.32;4.32;;;;;;;;;;5249090;27;20030;-85
2021/03/25 10:18:25;;;;;;;19.08;4.20;;;;;;;;;;5231040;27;20085;-85
2021/03/25 10:21:00;;;;;;;16.85;5.07;;;;;;;;;;5246013;27;20387;-85
2021/03/25 10:23:33;;;;;;;14.23;4.00;;;;;;;;;;5250464;27;20042;-84
2021/03/25 10:26:04;;;;;;;14.90;4.07;;;;;;;;;;5251482;27;20348;-85
2021/03/25 10:28:39;;;;;;;14.73;3.10;;;;;;;;;;5252906;27;20475;-85
2021/03/25 10:31:08;;;;;;;30.52;6.57;;;;;;;;;;5245872;27;20041;-84
2021/03/25 10:33:37;;;;;;;10.23;3.12;;;;;;;;;;5229125;27;20036;-84
2021/03/25 10:36:46;;;;;;;12.32;4.03;;;;;;;;;;5232726;27;20397;-85
2021/03/25 10:39:33;;;;;;;13.93;3.55;;;;;;;;;;5251662;27;20372;-84
2021/03/25 10:42:25;;;;;;;17.58;4.03;;;;;;;;;;5247615;27;20042;-85
2021/03/25 10:44:54;;;;;;;15.38;4.30;;;;;;;;;;5270022;27;20014;-85
2021/03/25 10:47:30;;;;;;;11.38;3.92;;;;;;;;;;5271448;27;20380;-85
2021/03/25 10:50:00;;;;;;;15.30;4.65;;;;;;;;;;5272099;27;20435;-85
2021/03/25 10:52:39;;;;;;;14.82;3.25;;;;;;;;;;5266081;27;20057;-84
2021/03/25 10:55:07;;;;;;;18.67;4.18;;;;;;;;;;5269268;27;20032;-85
2021/03/25 10:57:37;;;;;;;18.70;3.20;;;;;;;;;;5274584;27;20513;-85
2021/03/25 11:00:17;;;;;;;18.70;3.97;;;;;;;;;;5273890;27;20054;-84
2021/03/25 11:02:46;;;;;;;11.93;3.20;;;;;;;;;;5269953;27;20021;-85
2021/03/25 11:05:27;;;;;;;18.77;4.75;;;;;;;;;;5269611;27;20025;-84
2021/03/25 11:08:00;;;;;;;9.27;2.12;;;;;;;;;;5272908;27;20424;-85
2021/03/25 11:10:28;;;;;;;11.43;3.03;;;;;;;;;;5271779;27;20824;-85
2021/03/25 11:13:00;;;;;;;9.43;2.58;;;;;;;;;;5253920;27;20126;-84
2021/03/25 11:15:33;;;;;;;8.50;2.28;;;;;;;;;;5271638;27;20047;-85
2021/03/25 11:18:22;;;;;;;11.25;2.97;;;;;;;;;;5273729;27;20360;-84
2021/03/25 11:20:51;;;;;;;10.35;2.30;;;;;;;;;;5273087;27;20022;-85
2021/03/25 11:23:21;;;;;;;14.18;2.80;;;;;;;;;;5272129;27;20048;-85
2021/03/25 11:25:59;;;;;;;7.40;1.87;;;;;;;;;;5266805;27;20264;-84
2021/03/25 11:28:43;;;;;;;22.45;3.28;;;;;;;;;;5265302;27;20077;-84
2021/03/25 11:31:20;;;;;;;16.27;2.97;;;;;;;;;;5272616;27;20421;-83
2021/03/25 11:33:49;;;;;;;11.75;2.20;;;;;;;;;;5272070;27;20034;-84
2021/03/25 11:36:36;;;;;;;10.68;2.00;;;;;;;;;;5272654;27;20065;-83
2021/03/25 11:39:12;;;;;;;29.23;3.25;;;;;;;;;;5272863;27;20698;-85
2021/03/25 11:41:41;;;;;;;9.15;1.95;;;;;;;;;;5261897;27;20031;-85
2021/03/25 11:44:10;;;;;;;8.98;2.37;;;;;;;;;;5247657;27;20082;-85
2021/03/25 11:46:40;;;;;;;25.27;2.90;;;;;;;;;;5271629;27;20060;-84
2021/03/25 11:49:12;;;;;;;10.15;2.20;;;;;;;;;;5233819;27;20052;-84
2021/03/25 11:51:56;;;;;;;16.33;2.60;;;;;;;;;;5259895;27;20034;-85
2021/03/25 11:54:33;;;;;;;11.20;2.40;;;;;;;;;;5267144;27;20311;-84
2021/03/25 11:57:26;;;;;;;11.88;2.90;;;;;;;;;;5251647;27;20411;-84
2021/03/25 12:00:06;;;;;;;16.55;2.55;;;;;;;;;;5267857;27;20075;-85
2021/03/25 12:02:37;;;;;;;13.32;2.42;;;;;;;;;;5264822;27;20045;-86
2021/03/25 12:05:21;;;;;;;28.15;3.92;;;;;;;;;;5262843;27;20068;-84
2021/03/25 12:08:05;;;;;;;17.60;3.20;;;;;;;;;;5244902;27;20062;-86
2021/03/25 12:10:57;;;;;;;14.93;3.10;;;;;;;;;;5255012;27;20025;-84
2021/03/25 12:13:31;;;;;;;12.45;2.40;;;;;;;;;;5247986;27;20056;-85
2021/03/25 12:16:06;;;;;;;14.43;2.65;;;;;;;;;;5246184;27;20053;-85
2021/03/25 12:18:39;;;;;;;12.18;2.30;;;;;;;;;;5267312;27;20359;-85
2021/03/25 12:21:10;;;;;;;12.43;2.28;;;;;;;;;;5266904;27;20086;-85
2021/03/25 12:23:40;;;;;;;18.08;3.03;;;;;;;;;;5265995;27;20033;-84
2021/03/25 12:26:12;;;;;;;9.98;2.42;;;;;;;;;;5231916;27;20034;-83
2021/03/25 12:28:40;;;;;;;10.15;2.25;;;;;;;;;;5269480;27;20052;-84
2021/03/25 12:31:14;;;;;;;17.05;2.47;;;;;;;;;;5270686;27;20033;-84
2021/03/25 12:33:42;;;;;;;18.90;3.28;;;;;;;;;;5263561;27;20063;-84
2021/03/25 12:36:23;;;;;;;35.75;3.70;;;;;;;;;;5264322;27;20061;-84
2021/03/25 12:38:51;;;;;;;21.15;2.95;;;;;;;;;;5270693;27;20733;-84
2021/03/25 12:41:41;;;;;;;20.50;3.67;;;;;;;;;;5263411;27;20052;-84
2021/03/25 12:44:12;;;;;;;11.43;2.35;;;;;;;;;;5263291;27;20065;-84
2021/03/25 12:46:57;;;;;;;21.98;3.22;;;;;;;;;;5257655;27;20038;-85
2021/03/25 12:49:25;;;;;;;77.68;7.07;;;;;;;;;;5268717;27;20040;-83
2021/03/25 12:54:40;;;;;;;32.33;4.00;;;;;;;;;;5261532;27;20072;-87
2021/03/25 12:57:10;;;;;;;25.90;4.32;;;;;;;;;;5270890;27;20029;-85
2021/03/25 12:59:42;;;;;;;42.65;4.75;;;;;;;;;;5261723;27;20059;-87
2021/03/25 13:02:12;;;;;;;20.35;3.70;;;;;;;;;;5244725;27;20318;-83
2021/03/25 13:04:52;;;;;;;50.78;5.55;;;;;;;;;;5263145;27;20390;-86
2021/03/25 13:07:32;;;;;;;39.85;4.78;;;;;;;;;;5248887;27;20073;-86
2021/03/25 13:10:11;;;;;;;48.13;5.75;;;;;;;;;;5270171;27;20072;-85
2021/03/25 13:12:40;;;;;;;37.03;4.70;;;;;;;;;;5257946;27;20053;-87
2021/03/25 13:15:08;;;;;;;41.15;5.57;;;;;;;;;;5274861;27;20032;-86
2021/03/25 13:17:36;;;;;;;36.83;5.18;;;;;;;;;;5262436;27;20022;-85
2021/03/25 13:20:25;;;;;;;55.92;6.35;;;;;;;;;;5270466;27;20538;-85
2021/03/25 13:22:53;;;;;;;43.63;5.25;;;;;;;;;;5270411;27;20654;-86
2021/03/25 13:25:22;;;;;;;27.23;3.92;;;;;;;;;;5271427;27;20047;-86
2021/03/25 13:27:51;;;;;;;34.35;4.70;;;;;;;;;;5273843;27;20041;-86
2021/03/25 13:30:19;;;;;;;35.17;5.30;;;;;;;;;;5267530;27;20081;-86
2021/03/25 13:32:50;;;;;;;38.40;5.03;;;;;;;;;;5250479;27;20054;-86
2021/03/25 13:35:34;;;;;;;51.80;6.55;;;;;;;;;;5266648;27;20411;-86
2021/03/25 13:38:02;;;;;;;43.33;5.03;;;;;;;;;;5268056;27;20049;-86
2021/03/25 13:40:31;;;;;;;42.45;5.05;;;;;;;;;;5266847;27;20037;-87
2021/03/25 13:42:59;;;;;;;39.08;5.50;;;;;;;;;;5271728;27;20029;-86
2021/03/25 13:45:28;;;;;;;28.02;5.07;;;;;;;;;;5268729;27;20440;-86
2021/03/25 13:48:14;;;;;;;37.90;6.43;;;;;;;;;;5265339;27;20064;-86
2021/03/25 13:50:59;;;;;;;40.47;5.43;;;;;;;;;;5242685;27;20359;-87
2021/03/25 13:53:28;;;;;;;48.83;5.68;;;;;;;;;;5263647;27;20356;-86
2021/03/25 13:55:57;;;;;;;47.50;5.78;;;;;;;;;;5267139;27;20518;-87
2021/03/25 13:58:25;;;;;;;95.97;9.15;;;;;;;;;;5265792;27;20050;-86
2021/03/25 14:00:53;;;;;;;44.22;5.85;;;;;;;;;;5268478;27;20486;-87
2021/03/25 14:03:22;;;;;;;50.00;6.47;;;;;;;;;;5267780;27;20036;-86
2021/03/25 14:05:51;;;;;;;41.47;5.43;;;;;;;;;;5267306;27;20554;-87
2021/03/25 14:08:18;;;;;;;45.17;6.95;;;;;;;;;;5263147;27;20064;-86
2021/03/25 14:10:47;;;;;;;51.35;6.40;;;;;;;;;;5266496;27;20034;-87
2021/03/25 14:13:16;;;;;;;53.20;6.87;;;;;;;;;;5264122;27;20076;-86
2021/03/25 14:15:48;;;;;;;48.72;6.72;;;;;;;;;;5265428;27;20060;-86
2021/03/25 14:18:27;;;;;;;51.55;6.05;;;;;;;;;;5266824;27;20065;-86
2021/03/25 14:21:16;;;;;;;65.00;8.07;;;;;;;;;;5249310;27;20462;-85
2021/03/25 14:23:44;;;;;;;54.35;6.47;;;;;;;;;;5267952;27;20506;-87
2021/03/25 14:26:17;;;;;;;45.08;6.12;;;;;;;;;;5245678;27;20009;-85
2021/03/25 14:28:46;;;;;;;39.25;5.53;;;;;;;;;;5264914;27;20026;-85
2021/03/25 14:31:14;;;;;;;60.90;8.75;;;;;;;;;;5269722;27;20254;-85
2021/03/25 14:33:42;;;;;;;39.83;7.03;;;;;;;;;;5264365;27;20437;-85
2021/03/25 14:36:12;;;;;;;50.20;6.50;;;;;;;;;;5244532;27;20064;-85
2021/03/25 14:38:43;;;;;;;39.42;6.12;;;;;;;;;;5270051;27;20143;-86
2021/03/25 14:41:12;;;;;;;37.60;5.93;;;;;;;;;;5250820;27;20090;-85
2021/03/25 14:43:49;;;;;;;57.15;8.43;;;;;;;;;;5239532;27;20072;-86
2021/03/25 14:46:18;;;;;;;39.47;5.72;;;;;;;;;;5265842;27;20027;-85
2021/03/25 14:48:45;;;;;;;40.53;5.72;;;;;;;;;;5269760;27;20060;-86
2021/03/25 14:51:16;;;;;;;43.40;6.65;;;;;;;;;;5269556;27;20061;-86
2021/03/25 14:53:44;;;;;;;40.53;6.72;;;;;;;;;;5266216;27;20249;-84
2021/03/25 14:56:13;;;;;;;64.32;8.98;;;;;;;;;;5231454;27;20111;-85
2021/03/25 14:58:41;;;;;;;47.35;7.47;;;;;;;;;;5266722;27;20064;-86
2021/03/25 15:01:19;;;;;;;58.80;8.07;;;;;;;;;;5265972;27;20049;-85
2021/03/25 15:03:47;;;;;;;53.47;8.20;;;;;;;;;;5271746;27;20013;-85
2021/03/25 15:06:20;;;;;;;45.72;8.27;;;;;;;;;;5269757;27;20032;-86
2021/03/25 15:08:53;;;;;;;57.17;7.45;;;;;;;;;;5252535;27;20060;-85
2021/03/25 15:11:22;;;;;;;38.08;7.37;;;;;;;;;;5268561;27;20352;-86
2021/03/25 15:13:49;;;;;;;51.35;7.87;;;;;;;;;;5270686;27;20320;-86
2021/03/25 15:16:17;;;;;;;43.45;7.30;;;;;;;;;;5268764;27;20029;-85
2021/03/25 15:18:46;;;;;;;37.67;6.18;;;;;;;;;;5273382;27;20348;-84
2021/03/25 15:21:23;;;;;;;52.20;7.90;;;;;;;;;;5269721;27;20115;-86
2021/03/25 15:24:03;;;;;;;40.75;5.80;;;;;;;;;;5247762;27;20061;-85
2021/03/25 15:26:31;;;;;;;34.78;5.75;;;;;;;;;;5271629;27;20032;-86
2021/03/25 15:28:59;;;;;;;49.42;7.93;;;;;;;;;;5268596;27;20030;-85
2021/03/25 15:31:27;;;;;;;30.52;5.95;;;;;;;;;;5268814;27;20041;-85
2021/03/25 15:33:55;;;;;;;41.75;6.87;;;;;;;;;;5269826;27;20026;-85
2021/03/25 15:36:24;;;;;;;56.33;8.68;;;;;;;;;;5269719;27;20036;-87
2021/03/25 15:38:52;;;;;;;34.58;6.07;;;;;;;;;;5263024;27;20057;-84
2021/03/25 15:41:20;;;;;;;28.05;6.10;;;;;;;;;;5247422;27;20391;-85
2021/03/25 15:43:52;;;;;;;37.45;7.43;;;;;;;;;;5270170;27;20057;-85
2021/03/25 15:46:23;;;;;;;39.67;6.55;;;;;;;;;;5268598;27;20344;-86
2021/03/25 15:48:52;;;;;;;27.62;5.60;;;;;;;;;;5264576;27;20050;-85
2021/03/25 15:51:21;;;;;;;30.55;6.10;;;;;;;;;;5251519;27;20052;-85
2021/03/25 15:53:50;;;;;;;26.23;5.57;;;;;;;;;;5269759;27;20387;-84
2021/03/25 15:56:18;;;;;;;27.87;5.85;;;;;;;;;;5272513;27;20040;-86
2021/03/25 15:58:47;;;;;;;27.40;5.85;;;;;;;;;;5272814;27;20368;-84
2021/03/25 16:01:15;;;;;;;28.33;5.70;;;;;;;;;;5252486;27;20126;-84
2021/03/25 16:03:44;;;;;;;33.92;6.97;;;;;;;;;;5272899;27;20337;-86
2021/03/25 16:06:15;;;;;;;33.70;5.87;;;;;;;;;;5271786;27;20099;-85
2021/03/25 16:09:00;;;;;;;35.33;6.60;;;;;;;;;;5252903;27;20089;-85
2021/03/25 16:11:29;;;;;;;35.50;5.87;;;;;;;;;;5273117;27;20018;-85
2021/03/25 16:13:57;;;;;;;24.05;5.00;;;;;;;;;;5272716;27;20090;-85
2021/03/25 16:16:25;;;;;;;36.85;5.75;;;;;;;;;;5273455;27;20044;-84
2021/03/25 16:18:53;;;;;;;44.08;6.03;;;;;;;;;;5270043;27;20093;-84
2021/03/25 16:21:22;;;;;;;30.73;5.50;;;;;;;;;;5267388;27;20061;-86
2021/03/25 16:23:49;;;;;;;39.65;6.72;;;;;;;;;;5268981;27;20036;-87
2021/03/25 16:26:19;;;;;;;33.47;5.28;;;;;;;;;;5273717;27;20404;-85
2021/03/25 16:28:48;;;;;;;35.67;6.55;;;;;;;;;;5264273;27;20209;-85
2021/03/25 16:31:16;;;;;;;37.47;6.00;;;;;;;;;;5267308;27;20049;-85
2021/03/25 16:33:44;;;;;;;22.27;5.03;;;;;;;;;;5273767;27;20040;-84
2021/03/25 16:36:12;;;;;;;26.05;5.00;;;;;;;;;;5272763;27;20032;-84
2021/03/25 16:38:40;;;;;;;25.35;4.72;;;;;;;;;;5246590;27;20034;-84
2021/03/25 16:41:10;;;;;;;23.52;5.05;;;;;;;;;;5264402;27;20041;-85
2021/03/25 16:43:39;;;;;;;35.17;5.50;;;;;;;;;;5243780;27;20148;-85
2021/03/25 16:46:13;;;;;;;35.45;5.05;;;;;;;;;;5262788;27;20059;-86
2021/03/25 16:48:41;;;;;;;32.72;5.43;;;;;;;;;;5242039;27;20552;-86
2021/03/25 16:51:12;;;;;;;38.75;5.93;;;;;;;;;;5257984;27;20788;-85
2021/03/25 16:53:40;;;;;;;27.95;5.20;;;;;;;;;;5266768;27;20017;-85
2021/03/25 16:56:10;;;;;;;38.95;5.43;;;;;;;;;;5248419;27;20041;-85
2021/03/25 16:58:38;;;;;;;33.92;5.12;;;;;;;;;;5267414;27;20025;-86